createdAt,value
2023-03-27T00:00:01.563Z,10.20
2023-03-27T00:02:31.554Z,11.32
2023-03-27T00:04:58.702Z,10.45
2023-03-27T00:07:25.743Z,9.25
2023-03-27T00:09:53.541Z,12.48
2023-03-27T00:12:20.560Z,12.57
2023-03-27T00:14:48.291Z,11.02
2023-03-27T00:17:15.338Z,10.32
2023-03-27T00:19:42.448Z,12.40
2023-03-27T00:22:09.566Z,10.25
2023-03-27T00:24:37.442Z,9.70
2023-03-27T00:27:04.403Z,11.13
2023-03-27T00:29:31.672Z,9.98
2023-03-27T00:31:58.788Z,8.95
2023-03-27T00:34:25.841Z,8.00
2023-03-27T00:36:53.862Z,7.95
2023-03-27T00:39:20.985Z,8.98
2023-03-27T00:41:48.826Z,9.27
2023-03-27T00:44:36.489Z,8.60
2023-03-27T00:47:07.823Z,7.13
2023-03-27T00:49:37.585Z,7.25
2023-03-27T00:52:06.937Z,6.32
2023-03-27T00:54:40.327Z,7.50
2023-03-27T00:57:12.301Z,7.70
2023-03-27T00:59:42.747Z,7.05
2023-03-27T01:02:10.415Z,7.05
2023-03-27T01:04:39.951Z,7.28
2023-03-27T01:07:11.227Z,7.82
2023-03-27T01:09:39.356Z,7.28
2023-03-27T01:12:23.941Z,6.28
2023-03-27T01:14:56.852Z,8.07
2023-03-27T01:17:32.790Z,10.27
2023-03-27T01:20:44.990Z,6.95
2023-03-27T01:23:58.729Z,7.35
2023-03-27T01:26:49.084Z,7.88
2023-03-27T01:29:31.122Z,8.18
2023-03-27T01:32:30.985Z,8.50
2023-03-27T01:35:49.301Z,9.13
2023-03-27T01:38:40.943Z,8.85
2023-03-27T01:41:11.565Z,7.95
2023-03-27T01:43:47.350Z,9.02
2023-03-27T01:46:29.975Z,10.27
2023-03-27T01:49:05.785Z,8.98
2023-03-27T01:51:38.683Z,7.75
2023-03-27T01:54:32.918Z,8.45
2023-03-27T01:57:09.190Z,9.95
2023-03-27T01:59:42.545Z,10.10
2023-03-27T02:02:14.885Z,8.75
2023-03-27T02:04:51.726Z,7.95
2023-03-27T02:07:27.269Z,8.07
2023-03-27T02:10:00.381Z,8.52
2023-03-27T02:12:38.035Z,8.68
2023-03-27T02:15:26.217Z,10.10
2023-03-27T02:18:06.624Z,8.32
2023-03-27T02:20:35.966Z,6.57
2023-03-27T02:23:05.293Z,8.27
2023-03-27T02:25:39.799Z,7.97
2023-03-27T02:28:31.930Z,10.45
2023-03-27T02:31:31.611Z,7.95
2023-03-27T02:34:14.733Z,8.27
2023-03-27T02:36:56.402Z,9.68
2023-03-27T02:40:09.133Z,12.57
2023-03-27T02:43:08.512Z,14.02
2023-03-27T02:45:57.650Z,15.45
2023-03-27T02:48:24.743Z,18.15
2023-03-27T02:51:01.371Z,17.40
2023-03-27T02:53:36.368Z,15.73
2023-03-27T02:56:06.140Z,21.15
2023-03-27T02:58:47.492Z,18.02
2023-03-27T03:01:32.348Z,19.33
2023-03-27T03:04:31.148Z,19.00
2023-03-27T03:07:20.291Z,15.20
2023-03-27T03:09:47.331Z,17.58
2023-03-27T03:12:14.224Z,13.88
2023-03-27T03:14:44.352Z,15.55
2023-03-27T03:17:12.980Z,18.67
2023-03-27T03:19:40.946Z,18.52
2023-03-27T03:22:08.733Z,24.40
2023-03-27T03:24:37.585Z,35.58
2023-03-27T03:27:05.938Z,16.95
2023-03-27T03:29:44.341Z,16.80
2023-03-27T03:32:20.868Z,18.52
2023-03-27T03:34:51.085Z,23.25
2023-03-27T03:37:19.013Z,15.95
2023-03-27T03:39:46.882Z,21.55
2023-03-27T03:42:22.901Z,14.40
2023-03-27T03:44:52.879Z,17.92
2023-03-27T03:47:22.505Z,18.58
2023-03-27T03:49:50.026Z,17.35
2023-03-27T03:52:17.082Z,18.60
2023-03-27T03:54:46.714Z,23.40
2023-03-27T03:59:41.501Z,19.50
2023-03-27T04:02:28.853Z,26.23
2023-03-27T04:05:08.378Z,19.35
2023-03-27T04:07:37.029Z,23.90
2023-03-27T04:10:30.680Z,28.55
2023-03-27T04:12:59.771Z,28.08
2023-03-27T04:15:29.810Z,27.38
2023-03-27T04:17:59.893Z,25.58
2023-03-27T04:20:27.428Z,24.00
2023-03-27T04:22:56.334Z,25.33
2023-03-27T04:25:24.944Z,26.80
2023-03-27T04:27:52.621Z,22.40
2023-03-27T04:30:28.879Z,24.08
2023-03-27T04:33:20.650Z,20.85
2023-03-27T04:36:07.197Z,19.13
2023-03-27T04:38:44.436Z,23.92
2023-03-27T04:41:11.958Z,22.63
2023-03-27T04:43:41.966Z,23.00
2023-03-27T04:46:09.520Z,20.65
2023-03-27T04:48:39.010Z,24.38
2023-03-27T04:51:18.822Z,23.83
2023-03-27T04:53:46.419Z,20.58
2023-03-27T04:56:13.990Z,27.50
2023-03-27T04:58:48.683Z,29.30
2023-03-27T05:01:17.492Z,27.48
2023-03-27T05:04:03.737Z,24.77
2023-03-27T05:06:44.843Z,21.33
2023-03-27T05:09:15.721Z,19.10
2023-03-27T05:11:44.878Z,22.48
2023-03-27T05:14:11.874Z,15.90
2023-03-27T05:16:41.429Z,15.57
2023-03-27T05:19:09.817Z,17.52
2023-03-27T05:21:41.293Z,15.50
2023-03-27T05:24:11.214Z,15.23
2023-03-27T05:26:39.330Z,14.38
2023-03-27T05:29:06.533Z,19.38
2023-03-27T05:31:37.524Z,14.40
2023-03-27T05:34:30.498Z,18.35
2023-03-27T05:37:06.434Z,17.73
2023-03-27T05:39:42.626Z,16.23
2023-03-27T05:42:10.385Z,16.58
2023-03-27T05:44:37.466Z,15.32
2023-03-27T05:47:05.494Z,13.40
2023-03-27T05:49:34.149Z,12.88
2023-03-27T05:52:09.610Z,16.70
2023-03-27T05:54:36.769Z,12.10
2023-03-27T05:57:08.456Z,12.75
2023-03-27T05:59:37.307Z,12.80
2023-03-27T06:02:30.750Z,15.95
2023-03-27T06:05:04.621Z,16.50
2023-03-27T06:07:39.080Z,20.55
2023-03-27T06:10:13.773Z,19.77
2023-03-27T06:13:16.760Z,21.15
2023-03-27T06:16:05.845Z,19.05
2023-03-27T06:21:22.791Z,19.70
2023-03-27T06:23:56.944Z,20.70
2023-03-27T06:26:23.914Z,17.23
2023-03-27T06:28:51.004Z,20.95
2023-03-27T06:31:20.499Z,16.45
2023-03-27T06:34:01.599Z,18.17
2023-03-27T06:36:41.096Z,15.38
2023-03-27T06:39:10.216Z,14.85
2023-03-27T06:41:37.747Z,16.55
2023-03-27T06:44:04.951Z,15.35
2023-03-27T06:46:45.827Z,14.00
2023-03-27T06:49:17.162Z,20.92
2023-03-27T06:51:44.247Z,23.80
2023-03-27T06:54:13.647Z,21.45
2023-03-27T06:56:45.924Z,20.50
2023-03-27T06:59:17.914Z,17.05
2023-03-27T07:01:48.118Z,17.88
2023-03-27T07:04:27.660Z,16.00
2023-03-27T07:07:11.256Z,21.00
2023-03-27T07:09:41.356Z,17.30
2023-03-27T07:12:09.693Z,16.90
2023-03-27T07:14:38.610Z,19.88
2023-03-27T07:17:09.107Z,18.13
2023-03-27T07:19:51.576Z,12.52
2023-03-27T07:22:21.790Z,13.35
2023-03-27T07:24:49.488Z,13.00
2023-03-27T07:27:16.757Z,13.15
2023-03-27T07:29:45.325Z,10.27
2023-03-27T07:32:29.546Z,11.38
2023-03-27T07:35:05.398Z,8.95
2023-03-27T07:37:53.993Z,9.68
2023-03-27T07:40:57.724Z,9.40
2023-03-27T07:43:44.548Z,14.07
2023-03-27T07:46:11.660Z,9.30
2023-03-27T07:48:40.048Z,12.80
2023-03-27T07:51:14.537Z,9.40
2023-03-27T07:53:44.604Z,7.82
2023-03-27T07:56:23.605Z,7.75
2023-03-27T07:59:08.562Z,9.18
2023-03-27T08:01:36.862Z,9.30
2023-03-27T08:04:04.128Z,9.13
2023-03-27T08:06:34.573Z,13.23
2023-03-27T08:09:04.029Z,6.20
2023-03-27T08:11:31.440Z,7.22
2023-03-27T08:13:59.747Z,6.72
2023-03-27T08:16:30.004Z,7.75
2023-03-27T08:19:00.248Z,9.70
2023-03-27T08:21:28.569Z,7.35
2023-03-27T08:23:57.716Z,7.88
2023-03-27T08:26:33.893Z,7.40
2023-03-27T08:29:08.445Z,8.15
2023-03-27T08:31:36.436Z,8.65
2023-03-27T08:34:05.451Z,8.85
2023-03-27T08:36:52.805Z,6.60
2023-03-27T08:39:23.246Z,8.73
2023-03-27T08:42:00.495Z,6.68
2023-03-27T08:44:33.176Z,7.40
2023-03-27T08:47:17.074Z,11.88
2023-03-27T08:50:02.664Z,7.75
2023-03-27T08:52:34.270Z,8.63
2023-03-27T08:55:22.963Z,9.20
2023-03-27T08:57:58.114Z,7.72
2023-03-27T09:00:32.000Z,8.18
2023-03-27T09:03:32.496Z,8.05
2023-03-27T09:06:08.627Z,7.90
2023-03-27T09:08:55.473Z,8.95
2023-03-27T09:11:40.823Z,8.98
2023-03-27T09:14:27.392Z,6.95
2023-03-27T09:16:56.910Z,5.50
2023-03-27T09:19:37.031Z,7.15
2023-03-27T09:22:13.802Z,8.07
2023-03-27T09:24:56.572Z,7.75
2023-03-27T09:27:33.589Z,7.05
2023-03-27T09:30:11.319Z,6.50
2023-03-27T09:32:49.367Z,9.07
2023-03-27T09:35:19.145Z,6.15
2023-03-27T09:37:58.658Z,6.35
2023-03-27T09:40:56.264Z,7.88
2023-03-27T09:43:30.426Z,8.75
2023-03-27T09:46:20.196Z,5.57
2023-03-27T09:49:18.363Z,5.88
2023-03-27T09:51:54.284Z,7.83
2023-03-27T09:54:54.766Z,6.78
2023-03-27T09:57:40.550Z,6.80
2023-03-27T10:00:28.400Z,7.05
2023-03-27T10:03:28.871Z,5.00
2023-03-27T10:06:09.966Z,6.68
2023-03-27T10:08:55.488Z,7.22
2023-03-27T10:11:32.636Z,7.93
2023-03-27T10:14:17.253Z,9.43
2023-03-27T10:16:46.338Z,7.68
2023-03-27T10:19:46.565Z,5.15
2023-03-27T10:22:29.279Z,5.43
2023-03-27T10:25:00.862Z,5.72
2023-03-27T10:27:47.301Z,7.38
2023-03-27T10:33:41.485Z,10.32
2023-03-27T10:36:37.306Z,6.10
2023-03-27T10:39:13.963Z,6.25
2023-03-27T10:42:10.618Z,6.63
2023-03-27T10:44:44.983Z,5.65
2023-03-27T10:47:18.919Z,5.28
2023-03-27T10:50:15.740Z,5.55
2023-03-27T10:52:57.913Z,7.15
2023-03-27T10:55:36.828Z,7.68
2023-03-27T10:58:16.159Z,14.68
2023-03-27T11:00:51.194Z,11.30
2023-03-27T11:03:53.294Z,7.40
2023-03-27T11:06:25.299Z,9.57
2023-03-27T11:09:05.935Z,7.50
2023-03-27T11:11:48.183Z,7.53
2023-03-27T11:14:28.026Z,8.23
2023-03-27T11:17:04.273Z,6.45
2023-03-27T11:20:07.615Z,6.65
2023-03-27T11:23:16.492Z,17.45
2023-03-27T11:26:11.707Z,11.30
2023-03-27T11:29:09.583Z,11.23
2023-03-27T11:31:46.844Z,6.93
2023-03-27T11:34:34.196Z,5.22
2023-03-27T11:37:46.983Z,6.90
2023-03-27T11:40:20.362Z,8.98
2023-03-27T11:42:55.085Z,7.80
2023-03-27T11:45:28.306Z,7.05
2023-03-27T11:48:02.373Z,6.60
2023-03-27T11:51:03.177Z,7.43
2023-03-27T11:53:56.521Z,6.97
2023-03-27T11:56:59.340Z,5.93
2023-03-27T11:59:58.128Z,6.35
2023-03-27T12:02:37.949Z,6.88
2023-03-27T12:05:37.666Z,6.18
2023-03-27T12:08:27.458Z,7.25
2023-03-27T12:10:59.642Z,6.28
2023-03-27T12:14:02.747Z,6.20
2023-03-27T12:17:05.916Z,4.93
2023-03-27T12:20:10.928Z,3.92
2023-03-27T12:22:58.766Z,4.85
2023-03-27T12:26:34.824Z,6.45
2023-03-27T12:29:23.511Z,9.55
2023-03-27T12:32:25.090Z,5.43
2023-03-27T12:34:56.952Z,7.55
2023-03-27T12:37:47.826Z,8.82
2023-03-27T12:40:27.318Z,6.35
2023-03-27T12:43:31.780Z,8.10
2023-03-27T12:46:25.295Z,5.32
2023-03-27T12:49:06.645Z,4.80
2023-03-27T12:51:44.877Z,6.68
2023-03-27T12:54:23.326Z,6.57
2023-03-27T12:56:52.675Z,4.68
2023-03-27T12:59:23.507Z,5.50
2023-03-27T13:02:10.972Z,5.35
2023-03-27T13:05:01.988Z,4.45
2023-03-27T13:07:43.437Z,5.60
2023-03-27T13:10:46.476Z,5.03
2023-03-27T13:13:49.759Z,6.65
2023-03-27T13:16:26.092Z,4.25
2023-03-27T13:19:27.478Z,4.18
2023-03-27T13:23:03.085Z,6.95
2023-03-27T13:25:38.395Z,5.00
2023-03-27T13:28:33.040Z,5.85
2023-03-27T13:31:15.836Z,5.80
2023-03-27T13:34:12.148Z,5.25
2023-03-27T13:36:50.727Z,7.82
2023-03-27T13:39:55.401Z,7.70
2023-03-27T13:45:07.877Z,6.72
2023-03-27T13:47:54.511Z,8.93
2023-03-27T13:50:44.961Z,9.57
2023-03-27T13:53:42.959Z,7.03
2023-03-27T13:56:41.482Z,7.20
2023-03-27T13:59:49.005Z,5.75
2023-03-27T14:02:38.549Z,8.70
2023-03-27T14:05:45.092Z,4.45
2023-03-27T14:08:38.626Z,6.80
2023-03-27T14:11:42.074Z,6.18
2023-03-27T14:14:41.197Z,10.02
2023-03-27T14:17:21.110Z,5.47
2023-03-27T14:20:22.237Z,6.82
2023-03-27T14:23:05.796Z,9.75
2023-03-27T14:26:01.901Z,8.90
2023-03-27T14:28:54.603Z,6.38
2023-03-27T14:31:38.464Z,7.05
2023-03-27T14:34:22.535Z,10.80
2023-03-27T14:36:52.443Z,6.93
2023-03-27T14:39:28.526Z,11.00
2023-03-27T14:42:03.821Z,6.07
2023-03-27T14:44:34.501Z,5.05
2023-03-27T14:47:13.404Z,6.00
2023-03-27T14:49:50.227Z,7.50
2023-03-27T14:52:35.409Z,6.28
2023-03-27T14:55:27.031Z,4.80
2023-03-27T14:58:18.608Z,7.03
2023-03-27T15:00:54.769Z,7.05
2023-03-27T15:03:26.505Z,6.35
2023-03-27T15:06:05.023Z,8.05
2023-03-27T15:08:46.702Z,8.50
2023-03-27T15:11:27.387Z,6.68
2023-03-27T15:14:13.414Z,9.48
2023-03-27T15:16:41.444Z,5.65
2023-03-27T15:19:19.895Z,6.68
2023-03-27T15:22:01.529Z,9.38
2023-03-27T15:24:57.706Z,6.68
2023-03-27T15:27:35.361Z,5.25
2023-03-27T15:30:18.066Z,4.82
2023-03-27T15:32:52.907Z,6.78
2023-03-27T15:35:29.424Z,6.18
2023-03-27T15:37:57.205Z,5.82
2023-03-27T15:40:34.240Z,6.53
2023-03-27T15:43:22.171Z,6.82
2023-03-27T15:46:14.926Z,7.50
2023-03-27T15:48:50.881Z,7.45
2023-03-27T15:51:20.737Z,4.28
2023-03-27T15:53:49.604Z,7.38
2023-03-27T15:56:22.010Z,4.30
2023-03-27T15:58:53.282Z,5.55
2023-03-27T16:01:41.283Z,5.32
2023-03-27T16:04:15.608Z,5.10
2023-03-27T16:06:46.667Z,4.88
2023-03-27T16:09:29.484Z,8.30
2023-03-27T16:11:58.342Z,7.50
2023-03-27T16:14:30.235Z,5.00
2023-03-27T16:17:12.351Z,6.10
2023-03-27T16:19:44.985Z,9.70
2023-03-27T16:22:13.345Z,7.57
2023-03-27T16:24:40.612Z,10.48
2023-03-27T16:27:07.557Z,11.00
2023-03-27T16:29:34.539Z,7.88
2023-03-27T16:32:01.588Z,6.35
2023-03-27T16:34:28.873Z,7.85
2023-03-27T16:36:56.158Z,9.27
2023-03-27T16:39:23.036Z,9.07
2023-03-27T16:41:50.296Z,10.57
2023-03-27T16:44:18.803Z,8.63
2023-03-27T16:46:46.507Z,8.20
2023-03-27T16:49:13.643Z,7.70
2023-03-27T16:51:40.906Z,9.93
2023-03-27T16:54:07.839Z,5.40
2023-03-27T16:56:35.556Z,7.63
2023-03-27T16:59:02.936Z,6.20
2023-03-27T17:01:29.857Z,7.78
2023-03-27T17:03:56.903Z,8.70
2023-03-27T17:06:24.171Z,6.75
2023-03-27T17:08:55.493Z,11.05
2023-03-27T17:11:28.886Z,7.88
2023-03-27T17:13:55.998Z,10.45
2023-03-27T17:16:23.182Z,6.75
2023-03-27T17:18:50.615Z,7.60
2023-03-27T17:21:18.001Z,9.98
2023-03-27T17:23:48.308Z,10.00
2023-03-27T17:26:25.373Z,8.48
2023-03-27T17:28:53.333Z,7.85
2023-03-27T17:31:20.982Z,7.25
2023-03-27T17:33:48.064Z,6.68
2023-03-27T17:36:19.898Z,9.55
2023-03-27T17:38:49.108Z,8.18
2023-03-27T17:41:17.653Z,6.43
2023-03-27T17:43:46.024Z,8.00
2023-03-27T17:46:14.265Z,6.75
2023-03-27T17:48:42.371Z,10.75
2023-03-27T17:51:10.431Z,6.63
2023-03-27T17:53:39.127Z,6.88
2023-03-27T17:56:06.600Z,11.00
2023-03-27T17:58:34.571Z,7.70
2023-03-27T18:01:12.848Z,7.28
2023-03-27T18:03:40.039Z,7.70
2023-03-27T18:06:07.326Z,7.80
2023-03-27T18:08:34.610Z,7.13
2023-03-27T18:11:01.643Z,7.35
2023-03-27T18:13:30.521Z,9.32
2023-03-27T18:15:58.437Z,8.73
2023-03-27T18:18:26.146Z,8.60
2023-03-27T18:20:54.868Z,5.40
2023-03-27T18:23:22.443Z,8.82
2023-03-27T18:25:49.449Z,7.35
2023-03-27T18:28:16.427Z,5.95
2023-03-27T18:30:44.328Z,7.00
2023-03-27T18:33:11.668Z,6.97
2023-03-27T18:35:39.332Z,5.88
2023-03-27T18:38:06.693Z,5.03
2023-03-27T18:40:33.751Z,5.70
2023-03-27T18:43:01.034Z,5.80
2023-03-27T18:45:28.163Z,6.57
2023-03-27T18:47:55.140Z,8.23
2023-03-27T18:50:22.137Z,8.75
2023-03-27T18:52:49.077Z,6.78
2023-03-27T18:55:16.510Z,8.68
2023-03-27T18:57:43.441Z,9.00
2023-03-27T19:00:18.273Z,9.82
2023-03-27T19:02:46.287Z,14.48
2023-03-27T19:05:15.021Z,10.75
2023-03-27T19:07:44.775Z,12.63
2023-03-27T19:10:13.836Z,9.65
2023-03-27T19:12:43.945Z,8.77
2023-03-27T19:15:34.833Z,13.60
2023-03-27T19:18:21.210Z,8.13
2023-03-27T19:21:06.982Z,9.25
2023-03-27T19:23:45.793Z,6.22
2023-03-27T19:26:16.752Z,6.97
2023-03-27T19:28:47.744Z,4.72
2023-03-27T19:31:15.750Z,5.95
2023-03-27T19:33:43.096Z,5.68
2023-03-27T19:36:10.531Z,6.15
2023-03-27T19:38:38.757Z,6.68
2023-03-27T19:41:10.091Z,5.32
2023-03-27T19:43:37.341Z,9.00
2023-03-27T19:46:15.684Z,9.35
2023-03-27T19:48:50.324Z,6.68
2023-03-27T19:51:37.643Z,8.57
2023-03-27T19:54:04.710Z,8.75
2023-03-27T19:56:32.370Z,9.90
2023-03-27T19:59:00.886Z,10.38
2023-03-27T20:01:28.572Z,13.07
2023-03-27T20:03:57.238Z,7.63
2023-03-27T20:06:26.233Z,12.93
2023-03-27T20:08:53.620Z,8.93
2023-03-27T20:11:21.281Z,11.18
2023-03-27T20:13:56.051Z,9.00
2023-03-27T20:16:26.570Z,8.32
2023-03-27T20:19:04.579Z,10.55
2023-03-27T20:21:38.107Z,8.10
2023-03-27T20:24:10.210Z,8.65
2023-03-27T20:26:42.215Z,12.85
2023-03-27T20:29:18.775Z,10.18
2023-03-27T20:31:46.683Z,10.85
2023-03-27T20:34:14.557Z,10.20
2023-03-27T20:36:43.496Z,7.40
2023-03-27T20:39:33.758Z,11.32
2023-03-27T20:42:00.903Z,6.60
2023-03-27T20:44:36.142Z,8.43
2023-03-27T20:47:11.055Z,14.95
2023-03-27T20:49:45.740Z,10.05
2023-03-27T20:52:16.264Z,12.65
2023-03-27T20:54:43.850Z,11.07
2023-03-27T20:57:12.392Z,9.55
2023-03-27T20:59:39.404Z,8.90
2023-03-27T21:02:06.952Z,10.70
2023-03-27T21:04:34.051Z,13.20
2023-03-27T21:07:01.065Z,9.70
2023-03-27T21:09:33.742Z,10.40
2023-03-27T21:12:01.440Z,13.30
2023-03-27T21:14:36.043Z,13.85
2023-03-27T21:17:03.038Z,12.95
2023-03-27T21:19:30.035Z,9.82
2023-03-27T21:21:56.989Z,14.02
2023-03-27T21:24:23.948Z,11.13
2023-03-27T21:26:51.064Z,9.27
2023-03-27T21:29:18.410Z,9.60
2023-03-27T21:31:45.540Z,14.23
2023-03-27T21:34:12.644Z,9.60
2023-03-27T21:36:39.594Z,10.73
2023-03-27T21:39:09.975Z,8.88
2023-03-27T21:41:36.907Z,9.80
2023-03-27T21:44:04.065Z,9.75
2023-03-27T21:46:31.189Z,11.40
2023-03-27T21:48:58.336Z,16.92
2023-03-27T21:51:25.718Z,10.65
2023-03-27T21:53:53.358Z,11.13
2023-03-27T21:56:20.449Z,13.02
2023-03-27T21:58:47.361Z,9.95
2023-03-27T22:01:15.264Z,10.80
2023-03-27T22:03:42.307Z,12.20
2023-03-27T22:06:12.984Z,10.75
2023-03-27T22:08:43.052Z,11.77
2023-03-27T22:11:12.412Z,10.88
2023-03-27T22:13:40.419Z,9.68
2023-03-27T22:16:10.430Z,9.88
2023-03-27T22:18:37.536Z,11.55
2023-03-27T22:21:20.146Z,8.57
2023-03-27T22:23:49.043Z,10.90
2023-03-27T22:26:16.393Z,10.45
2023-03-27T22:28:43.928Z,7.65
2023-03-27T22:31:11.019Z,10.45
2023-03-27T22:33:38.453Z,10.43
2023-03-27T22:36:08.728Z,9.32
2023-03-27T22:38:36.191Z,14.05
2023-03-27T22:41:04.890Z,9.05
2023-03-27T22:43:32.198Z,10.25
2023-03-27T22:46:06.941Z,9.20
2023-03-27T22:48:34.132Z,9.38
2023-03-27T22:51:01.450Z,9.40
2023-03-27T22:53:32.062Z,9.15
2023-03-27T22:55:59.947Z,8.68
2023-03-27T22:58:28.182Z,15.75
2023-03-27T23:00:56.451Z,9.13
2023-03-27T23:03:24.758Z,9.93
2023-03-27T23:05:52.644Z,12.57
2023-03-27T23:08:21.605Z,10.20
2023-03-27T23:10:55.564Z,9.85
2023-03-27T23:13:23.052Z,15.93
2023-03-27T23:15:51.888Z,13.32
2023-03-27T23:18:23.996Z,15.20
2023-03-27T23:21:02.807Z,10.35
2023-03-27T23:23:31.532Z,9.52
2023-03-27T23:25:59.242Z,13.02
2023-03-27T23:28:30.546Z,12.52
2023-03-27T23:31:02.431Z,13.50
2023-03-27T23:33:33.865Z,16.35
2023-03-27T23:36:04.915Z,13.95
2023-03-27T23:38:31.892Z,15.90
2023-03-27T23:41:01.768Z,13.52
2023-03-27T23:43:30.001Z,13.45
2023-03-27T23:45:59.558Z,13.75
2023-03-27T23:48:33.607Z,12.82
2023-03-27T23:51:00.947Z,12.50
2023-03-27T23:53:28.957Z,12.38
2023-03-27T23:55:57.843Z,11.80
2023-03-27T23:58:28.859Z,12.88
